Time;durP1;ratioP1;P1;durP2;ratioP2;P2;SDS_P1;SDS_P2;PMS_P1;PMS_P2;Temp;Humidity;BMP_temperature;BMP_pressure;BME280_temperature;BME280_humidity;BME280_pressure;Samples;Min_cycle;Max_cycle;Signal;HPM_P1;HPM_P2
2022/01/31 00:00:12;;;;;;;54.72;37.28;;;6.80;74.70;;;;;;5016307;28;20037;-77
2022/01/31 00:02:38;;;;;;;51.33;34.50;;;6.90;75.00;;;;;;5033876;28;20025;-77
2022/01/31 00:05:04;;;;;;;60.88;38.33;;;6.80;75.00;;;;;;5033419;28;20578;-77
2022/01/31 00:07:30;;;;;;;65.63;41.95;;;6.80;74.70;;;;;;5033147;28;20505;-77
2022/01/31 00:09:56;;;;;;;59.97;38.03;;;6.70;75.30;;;;;;5033845;28;20038;-77
2022/01/31 00:12:24;;;;;;;52.08;35.35;;;6.70;75.70;;;;;;5033675;28;20041;-76
2022/01/31 00:14:51;;;;;;;56.40;35.05;;;6.70;75.60;;;;;;5033744;28;20057;-77
2022/01/31 00:17:17;;;;;;;54.35;35.97;;;6.70;75.50;;;;;;5033403;28;20038;-77
2022/01/31 00:19:44;;;;;;;57.35;40.03;;;6.70;75.30;;;;;;5033636;28;20042;-77
2022/01/31 00:22:13;;;;;;;53.17;35.75;;;6.70;75.20;;;;;;5033626;28;20474;-77
2022/01/31 00:24:39;;;;;;;66.88;41.08;;;6.80;75.00;;;;;;5033119;28;20041;-77
2022/01/31 00:27:07;;;;;;;61.50;39.30;;;6.70;75.00;;;;;;5031342;28;20037;-77
2022/01/31 00:29:32;;;;;;;67.82;42.95;;;6.60;76.60;;;;;;5033256;28;20517;-77
2022/01/31 00:31:58;;;;;;;57.30;37.40;;;6.60;76.40;;;;;;5033351;28;20037;-77
2022/01/31 00:34:24;;;;;;;77.93;51.33;;;6.60;76.10;;;;;;5033278;28;20037;-78
2022/01/31 00:36:50;;;;;;;77.13;50.92;;;6.50;75.50;;;;;;5032904;28;20060;-77
2022/01/31 00:39:16;;;;;;;76.38;49.92;;;6.30;75.90;;;;;;5032919;28;20029;-77
2022/01/31 00:41:42;;;;;;;90.22;61.50;;;6.30;76.00;;;;;;5033737;28;20438;-77
2022/01/31 00:44:21;;;;;;;91.00;57.85;;;6.00;76.10;;;;;;5033584;28;20045;-77
2022/01/31 00:46:58;;;;;;;85.20;54.33;;;5.80;76.90;;;;;;5028837;28;20041;-76
2022/01/31 00:51:56;;;;;;;77.22;49.40;;;5.70;77.80;;;;;;5033411;28;20045;-77
2022/01/31 00:54:21;;;;;;;66.47;42.83;;;5.70;77.60;;;;;;5032492;28;20030;-77
2022/01/31 00:56:48;;;;;;;82.57;52.00;;;5.90;77.20;;;;;;5032201;28;20044;-77
2022/01/31 00:59:14;;;;;;;88.30;56.00;;;5.90;76.30;;;;;;5029308;28;20050;-77
2022/01/31 01:01:40;;;;;;;73.75;46.38;;;5.80;76.50;;;;;;5032978;28;20095;-77
2022/01/31 01:04:05;;;;;;;80.40;49.47;;;5.70;77.10;;;;;;5032820;28;20041;-77
2022/01/31 01:06:31;;;;;;;90.32;56.83;;;5.70;76.80;;;;;;5032486;28;20041;-77
2022/01/31 01:08:57;;;;;;;81.22;52.35;;;5.70;76.80;;;;;;5030100;28;20045;-78
2022/01/31 01:11:22;;;;;;;76.40;47.92;;;5.60;77.10;;;;;;5032936;28;20041;-78
2022/01/31 01:13:48;;;;;;;88.43;55.28;;;5.50;77.00;;;;;;5032607;28;20076;-79
2022/01/31 01:16:14;;;;;;;72.68;46.17;;;5.40;77.00;;;;;;5032713;28;20065;-79
2022/01/31 01:18:40;;;;;;;61.95;40.25;;;5.50;77.30;;;;;;5031304;28;20111;-78
2022/01/31 01:21:06;;;;;;;62.05;38.85;;;5.60;77.00;;;;;;5014724;28;20516;-78
2022/01/31 01:23:31;;;;;;;58.75;37.20;;;5.80;76.40;;;;;;5032761;28;20125;-77
2022/01/31 01:25:57;;;;;;;86.45;51.20;;;5.90;75.70;;;;;;5032488;28;20049;-77
2022/01/31 01:28:25;;;;;;;84.18;52.28;;;5.90;75.40;;;;;;5032517;28;20037;-77
2022/01/31 01:30:50;;;;;;;81.15;48.75;;;5.70;76.00;;;;;;5031703;28;20486;-80
2022/01/31 01:33:21;;;;;;;74.38;46.90;;;5.60;76.10;;;;;;5031895;28;20030;-77
2022/01/31 01:35:50;;;;;;;80.60;50.00;;;5.60;76.00;;;;;;5031712;28;20037;-78
2022/01/31 01:38:17;;;;;;;78.57;48.95;;;5.60;76.20;;;;;;5032416;28;20030;-77
2022/01/31 01:40:45;;;;;;;71.80;43.70;;;5.70;76.20;;;;;;5032543;28;20033;-77
2022/01/31 01:43:12;;;;;;;80.38;49.97;;;5.70;75.80;;;;;;5031753;28;20505;-77
2022/01/31 01:45:39;;;;;;;69.43;44.67;;;5.70;75.80;;;;;;5031537;28;20067;-77
2022/01/31 01:48:06;;;;;;;75.18;47.35;;;5.60;76.10;;;;;;5022674;28;20470;-77
2022/01/31 01:50:36;;;;;;;77.13;46.80;;;5.60;76.40;;;;;;5032034;28;20371;-77
2022/01/31 01:53:04;;;;;;;81.57;51.55;;;5.50;76.60;;;;;;5030926;28;20481;-77
2022/01/31 01:55:30;;;;;;;82.15;53.40;;;5.40;76.90;;;;;;5031953;28;20443;-77
2022/01/31 01:57:56;;;;;;;62.10;39.85;;;5.40;77.50;;;;;;5031401;28;20049;-77
2022/01/31 02:00:43;;;;;;;62.65;40.33;;;5.40;77.40;;;;;;5014346;28;20111;-77
2022/01/31 02:03:09;;;;;;;60.53;36.13;;;5.60;76.80;;;;;;5030923;28;20115;-77
2022/01/31 02:05:35;;;;;;;70.25;44.55;;;5.70;76.00;;;;;;5031527;28;20040;-76
2022/01/31 02:08:01;;;;;;;71.80;45.13;;;5.70;75.70;;;;;;5022229;28;20118;-76
2022/01/31 02:10:28;;;;;;;69.78;43.53;;;5.70;75.70;;;;;;5031731;28;20470;-76
2022/01/31 02:12:54;;;;;;;81.90;49.78;;;5.70;75.40;;;;;;5033942;28;20029;-77
2022/01/31 02:15:24;;;;;;;66.63;42.00;;;5.70;75.50;;;;;;5017074;28;20069;-76
2022/01/31 02:17:49;;;;;;;62.35;37.67;;;5.70;75.60;;;;;;5035680;28;20034;-76
2022/01/31 02:20:15;;;;;;;64.45;38.70;;;5.70;75.50;;;;;;5035969;28;20038;-76
2022/01/31 02:22:41;;;;;;;62.50;40.10;;;5.80;75.70;;;;;;5035729;28;20041;-76
2022/01/31 02:25:07;;;;;;;77.30;47.95;;;5.80;75.00;;;;;;5035820;28;20052;-75
2022/01/31 02:27:34;;;;;;;64.95;40.90;;;5.70;75.50;;;;;;5035622;28;20048;-76
2022/01/31 02:30:01;;;;;;;62.78;39.35;;;5.70;76.00;;;;;;5035609;28;20041;-76
2022/01/31 02:32:27;;;;;;;63.53;39.72;;;5.70;75.80;;;;;;5035951;28;20442;-76
2022/01/31 02:34:53;;;;;;;59.10;36.28;;;5.70;75.70;;;;;;5035049;28;20466;-77
2022/01/31 02:37:19;;;;;;;56.13;36.58;;;5.80;75.60;;;;;;5035505;28;20386;-76
2022/01/31 02:39:46;;;;;;;69.97;44.20;;;5.80;75.30;;;;;;5035633;28;20361;-76
2022/01/31 02:42:13;;;;;;;69.63;43.30;;;5.70;75.40;;;;;;5035773;28;20095;-77
2022/01/31 02:44:40;;;;;;;68.20;43.47;;;5.70;75.80;;;;;;5034749;28;20100;-76
2022/01/31 02:47:11;;;;;;;58.08;38.50;;;5.70;75.90;;;;;;5017677;28;20064;-78
2022/01/31 02:49:46;;;;;;;58.83;39.83;;;5.70;75.90;;;;;;5035081;28;20390;-77
2022/01/31 02:52:14;;;;;;;74.10;45.78;;;5.80;75.60;;;;;;5026837;28;20045;-78
2022/01/31 02:54:39;;;;;;;74.82;45.28;;;5.80;75.20;;;;;;5034617;28;20061;-77
2022/01/31 02:57:05;;;;;;;62.33;39.97;;;5.70;75.30;;;;;;5034488;28;20474;-78
2022/01/31 02:59:31;;;;;;;58.35;36.60;;;5.70;75.90;;;;;;5034774;28;20042;-77
2022/01/31 03:01:58;;;;;;;65.05;40.95;;;5.80;75.70;;;;;;5035196;28;20437;-77
2022/01/31 03:04:23;;;;;;;65.50;41.33;;;5.80;75.60;;;;;;5034919;28;20041;-77
2022/01/31 03:06:49;;;;;;;57.55;36.17;;;5.70;76.00;;;;;;5034737;28;20045;-77
2022/01/31 03:09:16;;;;;;;62.35;38.40;;;5.80;75.90;;;;;;5033576;28;20037;-77
2022/01/31 03:11:42;;;;;;;72.43;45.42;;;5.80;76.20;;;;;;5034602;28;20048;-77
2022/01/31 03:14:09;;;;;;;77.68;48.15;;;5.70;76.00;;;;;;5034584;28;20037;-76
2022/01/31 03:16:39;;;;;;;64.55;40.10;;;5.60;76.60;;;;;;5034672;28;20041;-78
2022/01/31 03:19:08;;;;;;;78.22;49.58;;;5.60;76.60;;;;;;5034668;28;20092;-77
2022/01/31 03:21:34;;;;;;;83.00;50.78;;;5.60;76.20;;;;;;5034531;28;20037;-76
2022/01/31 03:24:00;;;;;;;75.50;48.05;;;5.40;76.80;;;;;;5034450;28;20069;-76
2022/01/31 03:26:26;;;;;;;81.70;54.05;;;5.30;77.10;;;;;;5034017;28;20044;-76
2022/01/31 03:28:53;;;;;;;71.53;46.80;;;5.20;77.40;;;;;;5016849;28;20041;-76
2022/01/31 03:31:20;;;;;;;61.17;39.13;;;5.10;78.00;;;;;;5034257;28;20040;-77
2022/01/31 03:33:48;;;;;;;64.70;39.85;;;5.30;77.70;;;;;;5034339;28;20485;-76
2022/01/31 03:36:14;;;;;;;72.82;46.40;;;5.40;76.70;;;;;;5034103;28;20037;-77
2022/01/31 03:38:41;;;;;;;71.18;42.13;;;5.40;76.40;;;;;;5034455;28;20045;-76
2022/01/31 03:41:11;;;;;;;59.80;36.70;;;5.40;76.40;;;;;;5034007;28;20120;-76
2022/01/31 03:43:37;;;;;;;56.38;36.42;;;5.50;76.40;;;;;;5034366;28;20037;-76
2022/01/31 03:46:04;;;;;;;57.20;35.72;;;5.60;75.80;;;;;;5034317;28;20041;-76
2022/01/31 03:48:30;;;;;;;61.92;38.03;;;5.60;75.70;;;;;;5034406;28;20045;-76
2022/01/31 03:50:57;;;;;;;62.65;39.40;;;5.70;75.50;;;;;;5033622;28;20088;-77
2022/01/31 03:53:23;;;;;;;61.85;39.03;;;5.70;75.10;;;;;;5016187;28;20041;-77
2022/01/31 03:55:48;;;;;;;60.58;37.53;;;5.70;75.40;;;;;;5033823;28;20034;-76
2022/01/31 03:58:14;;;;;;;64.25;39.45;;;5.60;75.30;;;;;;5034130;28;20077;-76
2022/01/31 04:00:40;;;;;;;59.55;38.33;;;5.60;75.60;;;;;;5031464;28;20037;-76
2022/01/31 04:03:06;;;;;;;49.70;34.15;;;5.60;75.90;;;;;;5033751;28;20347;-76
2022/01/31 04:05:32;;;;;;;51.70;34.00;;;5.60;76.00;;;;;;5015929;28;20045;-77
2022/01/31 04:07:58;;;;;;;53.72;35.10;;;5.70;76.10;;;;;;5016396;28;20053;-77
2022/01/31 04:10:25;;;;;;;55.88;36.00;;;5.70;75.90;;;;;;5033733;28;20037;-76
2022/01/31 04:12:51;;;;;;;58.42;35.55;;;5.70;76.10;;;;;;5033957;28;20045;-76
2022/01/31 04:15:17;;;;;;;56.92;35.35;;;5.80;76.00;;;;;;5033789;28;20041;-76
2022/01/31 04:17:43;;;;;;;69.13;40.72;;;5.80;76.00;;;;;;5034029;28;20052;-77
2022/01/31 04:20:10;;;;;;;56.22;36.35;;;5.70;76.30;;;;;;5015830;28;20382;-77
2022/01/31 04:22:42;;;;;;;53.95;35.55;;;5.70;76.80;;;;;;5033994;28;20049;-76
2022/01/31 04:25:17;;;;;;;64.63;41.28;;;5.80;76.40;;;;;;5033197;28;20037;-76
2022/01/31 04:27:50;;;;;;;50.65;33.03;;;5.80;76.80;;;;;;5031977;28;20187;-75
2022/01/31 04:30:16;;;;;;;49.95;31.60;;;5.80;76.80;;;;;;5033235;28;20568;-76
2022/01/31 04:32:42;;;;;;;53.90;33.38;;;5.90;76.20;;;;;;5032757;28;20043;-76
2022/01/31 04:35:08;;;;;;;49.25;31.83;;;6.00;76.00;;;;;;5032657;28;20025;-77
2022/01/31 04:37:33;;;;;;;49.88;30.52;;;6.00;76.00;;;;;;5033798;28;20037;-75
2022/01/31 04:39:59;;;;;;;40.40;26.95;;;6.10;75.70;;;;;;5015189;28;20033;-76
2022/01/31 04:42:25;;;;;;;46.22;28.95;;;6.10;75.80;;;;;;5032138;28;20069;-76
2022/01/31 04:44:53;;;;;;;53.55;34.22;;;6.10;75.60;;;;;;5033150;28;20037;-76
2022/01/31 04:47:19;;;;;;;48.40;29.75;;;6.10;75.70;;;;;;5032856;28;20048;-76
2022/01/31 04:49:45;;;;;;;39.67;26.10;;;6.10;75.60;;;;;;5032950;28;20030;-76
2022/01/31 04:52:10;;;;;;;47.78;28.00;;;6.20;75.70;;;;;;5015309;28;20512;-76
2022/01/31 04:54:36;;;;;;;41.95;25.73;;;6.20;75.60;;;;;;5032887;28;20065;-76
2022/01/31 04:57:02;;;;;;;42.55;25.73;;;6.20;74.80;;;;;;5032367;28;20049;-76
2022/01/31 04:59:28;;;;;;;39.60;24.75;;;6.30;73.50;;;;;;5032330;28;20519;-77
2022/01/31 05:01:54;;;;;;;39.60;25.15;;;6.40;72.50;;;;;;5014977;28;20156;-77
2022/01/31 05:04:19;;;;;;;44.55;28.60;;;6.40;72.10;;;;;;5033167;28;20060;-77
2022/01/31 05:06:46;;;;;;;50.15;33.00;;;6.40;71.70;;;;;;5029706;28;20064;-76
2022/01/31 05:09:12;;;;;;;45.67;27.55;;;6.30;71.50;;;;;;5031578;28;20033;-76
2022/01/31 05:11:38;;;;;;;47.88;29.80;;;6.40;72.20;;;;;;5032005;28;20478;-76
2022/01/31 05:14:04;;;;;;;47.55;29.17;;;6.30;72.20;;;;;;5032201;28;20040;-77
2022/01/31 05:16:30;;;;;;;49.47;28.50;;;6.30;72.30;;;;;;5010253;28;20037;-76
2022/01/31 05:18:56;;;;;;;39.58;24.10;;;6.40;71.80;;;;;;5031111;28;20038;-76
2022/01/31 05:21:21;;;;;;;43.42;27.30;;;6.40;71.80;;;;;;5028887;28;20038;-80
2022/01/31 05:23:49;;;;;;;40.30;25.65;;;6.50;71.40;;;;;;5032001;28;20039;-80
2022/01/31 05:26:15;;;;;;;36.05;24.17;;;6.50;71.50;;;;;;5027298;28;20038;-79
2022/01/31 05:28:41;;;;;;;36.45;23.55;;;6.50;72.00;;;;;;5031967;28;20112;-79
2022/01/31 05:31:07;;;;;;;41.70;25.10;;;6.50;71.70;;;;;;5032324;28;20124;-79
2022/01/31 05:33:33;;;;;;;39.42;24.15;;;6.40;71.80;;;;;;5032851;28;20034;-81
2022/01/31 05:35:59;;;;;;;35.92;23.80;;;6.40;72.20;;;;;;5014587;28;20079;-82
2022/01/31 05:38:25;;;;;;;38.05;24.77;;;6.40;72.70;;;;;;5013821;28;20486;-80
2022/01/31 05:40:50;;;;;;;38.05;24.88;;;6.50;71.70;;;;;;5032590;28;20050;-81
2022/01/31 05:43:19;;;;;;;37.90;24.00;;;6.50;72.10;;;;;;5032082;28;20042;-81
2022/01/31 05:45:45;;;;;;;40.30;25.85;;;6.50;71.90;;;;;;5032263;28;20039;-82
2022/01/31 05:48:11;;;;;;;42.72;26.10;;;6.60;71.50;;;;;;5035659;28;20049;-79
2022/01/31 05:50:37;;;;;;;40.67;26.52;;;6.60;71.20;;;;;;5036038;28;20051;-81
2022/01/31 05:53:02;;;;;;;42.03;26.55;;;6.50;71.70;;;;;;5034142;28;20485;-80
2022/01/31 05:55:28;;;;;;;45.35;26.70;;;6.60;71.70;;;;;;5034956;28;20044;-80
2022/01/31 05:57:54;;;;;;;44.83;28.23;;;6.60;71.90;;;;;;5164994;22;20136;-88
2022/01/31 06:00:26;;;;;;;45.75;30.35;;;6.50;71.70;;;;;;5040523;28;20488;-84
2022/01/31 06:02:58;;;;;;;41.65;26.48;;;6.50;70.90;;;;;;5037703;28;20115;-86
2022/01/31 06:05:24;;;;;;;40.97;26.55;;;6.50;71.20;;;;;;5036978;28;20140;-86
2022/01/31 06:07:50;;;;;;;42.25;27.33;;;6.50;71.50;;;;;;5040245;28;20053;-84
2022/01/31 06:10:16;;;;;;;39.17;25.35;;;6.50;70.80;;;;;;5051947;28;20112;-86
2022/01/31 06:12:42;;;;;;;58.60;35.90;;;6.40;70.90;;;;;;5057894;28;20037;-86
2022/01/31 06:15:09;;;;;;;54.95;36.55;;;6.20;71.20;;;;;;5038755;28;20606;-87
2022/01/31 06:17:34;;;;;;;51.55;31.15;;;6.10;73.20;;;;;;5039698;28;20112;-82
2022/01/31 06:20:00;;;;;;;53.03;32.65;;;6.10;72.80;;;;;;5051800;28;20175;-81
2022/01/31 06:22:26;;;;;;;56.42;32.72;;;6.00;72.50;;;;;;5054645;28;20388;-82
2022/01/31 06:24:52;;;;;;;43.58;28.33;;;5.90;72.50;;;;;;5051395;28;20052;-83
2022/01/31 06:27:17;;;;;;;50.40;30.45;;;5.80;72.90;;;;;;5049495;28;20079;-83
2022/01/31 06:29:46;;;;;;;41.45;27.35;;;5.90;72.90;;;;;;5038368;28;20499;-83
2022/01/31 06:32:11;;;;;;;41.13;25.45;;;5.80;73.10;;;;;;5053458;28;20104;-82
2022/01/31 06:34:40;;;;;;;33.58;22.02;;;5.90;72.60;;;;;;5051657;28;20129;-81
2022/01/31 06:37:06;;;;;;;31.52;21.30;;;6.00;72.20;;;;;;5019583;28;20034;-81
2022/01/31 06:39:31;;;;;;;35.83;22.58;;;6.00;72.30;;;;;;5037439;28;20544;-82
2022/01/31 06:41:58;;;;;;;38.65;26.08;;;6.00;72.20;;;;;;5037633;28;20042;-81
2022/01/31 06:44:23;;;;;;;31.92;22.33;;;6.00;71.80;;;;;;5037890;28;20444;-82
2022/01/31 06:46:49;;;;;;;35.50;22.90;;;5.90;72.30;;;;;;5052750;28;20124;-80
2022/01/31 06:49:15;;;;;;;42.85;27.25;;;6.00;72.00;;;;;;5057131;28;20411;-83
2022/01/31 06:52:14;;;;;;;33.53;23.13;;;5.80;72.30;;;;;;5056639;28;20055;-83
2022/01/31 06:54:42;;;;;;;34.75;22.90;;;5.80;72.50;;;;;;5038896;28;20136;-83
2022/01/31 06:57:08;;;;;;;30.52;20.75;;;5.80;73.10;;;;;;5055456;28;20032;-83
2022/01/31 06:59:33;;;;;;;31.17;20.83;;;6.00;72.50;;;;;;5044448;28;20405;-83
2022/01/31 07:01:59;;;;;;;36.40;20.90;;;6.00;72.70;;;;;;5055529;28;20033;-83
2022/01/31 07:04:25;;;;;;;43.65;30.27;;;6.10;72.20;;;;;;5056997;28;20076;-82
2022/01/31 07:06:51;;;;;;;39.28;25.60;;;6.00;72.30;;;;;;5049349;28;20116;-82
2022/01/31 07:09:16;;;;;;;35.05;23.67;;;5.90;73.30;;;;;;5025506;28;20038;-83
2022/01/31 07:11:43;;;;;;;32.63;21.02;;;5.90;73.90;;;;;;5047003;28;20409;-83
2022/01/31 07:14:30;;;;;;;34.42;20.75;;;6.00;73.90;;;;;;5030630;28;20187;-83
2022/01/31 07:16:58;;;;;;;33.50;21.85;;;6.00;73.60;;;;;;5031847;28;20034;-82
2022/01/31 07:19:28;;;;;;;37.92;22.25;;;6.10;73.90;;;;;;5048225;28;20037;-83
2022/01/31 07:21:54;;;;;;;46.60;31.63;;;6.00;74.60;;;;;;5035912;28;20037;-83
2022/01/31 07:24:30;;;;;;;33.92;22.02;;;6.10;74.60;;;;;;5057131;28;20045;-83
2022/01/31 07:26:56;;;;;;;42.75;27.13;;;6.10;74.00;;;;;;5056897;28;20123;-83
2022/01/31 07:29:22;;;;;;;35.28;22.67;;;6.10;73.40;;;;;;5038960;28;20072;-83
2022/01/31 07:31:49;;;;;;;31.52;20.67;;;6.00;74.40;;;;;;5049452;28;20470;-82
2022/01/31 07:34:17;;;;;;;42.50;25.98;;;6.00;74.50;;;;;;5055465;28;20037;-83
2022/01/31 07:36:46;;;;;;;35.13;23.02;;;6.10;73.80;;;;;;5043876;28;20034;-82
2022/01/31 07:39:12;;;;;;;31.65;20.52;;;6.10;73.90;;;;;;5024997;22;20066;-81
2022/01/31 07:41:38;;;;;;;32.30;20.30;;;6.10;73.90;;;;;;5010839;28;20046;-82
2022/01/31 07:44:04;;;;;;;38.20;24.08;;;6.20;73.30;;;;;;5014252;28;20192;-82
2022/01/31 07:46:30;;;;;;;30.85;21.17;;;6.20;73.70;;;;;;5014581;28;20085;-81
2022/01/31 07:48:56;;;;;;;36.80;24.67;;;6.30;73.00;;;;;;5013763;28;20587;-79
2022/01/31 07:51:22;;;;;;;35.20;23.38;;;6.30;72.80;;;;;;5020843;28;20044;-82
2022/01/31 07:53:48;;;;;;;319.63;227.43;;;6.30;74.30;;;;;;5012168;28;20040;-83
2022/01/31 07:56:16;;;;;;;92.25;65.15;;;6.30;73.10;;;;;;5004220;28;20033;-84
2022/01/31 07:58:42;;;;;;;55.95;37.85;;;6.30;73.70;;;;;;5014465;28;20085;-83
2022/01/31 08:01:08;;;;;;;50.38;30.33;;;6.30;73.30;;;;;;5013205;28;20046;-83
2022/01/31 08:03:35;;;;;;;49.38;31.88;;;6.40;72.80;;;;;;4978732;28;20182;-84
2022/01/31 08:06:02;;;;;;;45.90;29.25;;;6.30;72.90;;;;;;5015307;28;20077;-84
2022/01/31 08:08:29;;;;;;;48.83;32.03;;;6.20;72.80;;;;;;4999044;28;20042;-84
2022/01/31 08:10:56;;;;;;;41.40;26.25;;;6.20;73.40;;;;;;5014810;28;20032;-83
2022/01/31 08:13:24;;;;;;;52.92;34.47;;;6.10;73.00;;;;;;5015984;28;20041;-84
2022/01/31 08:18:46;;;;;;;42.28;25.73;;;6.10;73.20;;;;;;5006924;28;20034;-83
2022/01/31 08:21:14;;;;;;;49.72;31.20;;;6.20;72.40;;;;;;5005719;28;20041;-83
2022/01/31 08:24:17;;;;;;;38.30;23.17;;;6.00;72.70;;;;;;5015685;28;20034;-83
2022/01/31 08:26:43;;;;;;;43.20;26.77;;;5.90;73.10;;;;;;4995634;28;20096;-83
2022/01/31 08:29:22;;;;;;;37.20;21.77;;;6.00;72.50;;;;;;4996357;28;20046;-83
2022/01/31 08:31:52;;;;;;;36.50;23.40;;;6.00;73.00;;;;;;4984610;28;20125;-84
2022/01/31 08:34:23;;;;;;;33.80;21.10;;;6.10;72.90;;;;;;4997747;28;20038;-84
2022/01/31 08:36:50;;;;;;;40.63;24.73;;;6.10;72.40;;;;;;4998075;28;20561;-84
2022/01/31 08:39:19;;;;;;;34.72;21.75;;;6.00;73.00;;;;;;5015638;28;20042;-84
2022/01/31 08:41:49;;;;;;;39.63;24.75;;;6.10;72.70;;;;;;5015389;28;20087;-84
2022/01/31 08:44:17;;;;;;;47.97;28.73;;;6.10;73.30;;;;;;4997766;28;20036;-85
2022/01/31 08:46:47;;;;;;;42.88;27.30;;;5.80;73.20;;;;;;5015093;28;20096;-85
2022/01/31 08:49:16;;;;;;;42.60;28.98;;;5.40;74.10;;;;;;4997983;28;20104;-84
2022/01/31 08:51:44;;;;;;;40.72;24.83;;;5.20;75.00;;;;;;5015098;28;20092;-84
2022/01/31 08:54:11;;;;;;;29.38;18.55;;;5.20;76.00;;;;;;5015566;28;20096;-84
2022/01/31 08:56:44;;;;;;;28.13;17.35;;;5.40;75.70;;;;;;4996664;28;20037;-84
2022/01/31 08:59:18;;;;;;;36.80;23.15;;;5.60;75.30;;;;;;5007589;28;20113;-83
2022/01/31 09:01:54;;;;;;;37.03;24.58;;;5.60;73.80;;;;;;5014412;28;20509;-84
2022/01/31 09:05:04;;;;;;;42.38;26.83;;;5.50;74.50;;;;;;5011962;28;20014;-85
2022/01/31 09:07:11;;;;;;;42.95;26.98;;;5.40;74.40;;;;;;5004170;28;20041;-84
2022/01/31 09:09:36;;;;;;;48.80;26.25;;;5.20;75.40;;;;;;5014968;28;20041;-84
2022/01/31 09:12:05;;;;;;;45.20;28.70;;;5.20;75.80;;;;;;5013645;28;20088;-84
2022/01/31 09:14:31;;;;;;;41.42;25.27;;;5.00;76.10;;;;;;5015262;28;20022;-83
2022/01/31 09:16:57;;;;;;;38.85;24.85;;;4.90;76.10;;;;;;5014230;28;20184;-84
2022/01/31 09:19:23;;;;;;;38.70;24.95;;;4.80;77.50;;;;;;5014287;28;20038;-84
2022/01/31 09:21:49;;;;;;;35.42;22.75;;;4.80;77.90;;;;;;5014522;28;20046;-84
2022/01/31 09:24:15;;;;;;;35.90;22.58;;;4.90;77.60;;;;;;5014969;28;20410;-84
2022/01/31 09:26:41;;;;;;;47.58;23.65;;;4.90;77.50;;;;;;4994234;28;20143;-83
2022/01/31 09:29:06;;;;;;;35.03;21.08;;;4.90;77.60;;;;;;5014211;28;20064;-83
2022/01/31 09:31:32;;;;;;;35.13;20.98;;;5.00;77.30;;;;;;5014480;28;20478;-84
2022/01/31 09:33:58;;;;;;;38.60;19.55;;;5.10;77.10;;;;;;5015106;28;20033;-84
2022/01/31 09:36:23;;;;;;;30.58;18.77;;;5.20;76.60;;;;;;5014266;28;20041;-85
2022/01/31 09:38:50;;;;;;;38.60;21.08;;;5.40;76.50;;;;;;4996906;28;20129;-84
2022/01/31 09:41:20;;;;;;;43.42;22.00;;;5.40;76.00;;;;;;4996886;28;20533;-84
2022/01/31 09:46:33;;;;;;;39.22;23.00;;;5.60;75.90;;;;;;5015030;28;20474;-84
2022/01/31 09:48:58;;;;;;;31.65;19.30;;;5.60;75.60;;;;;;5014416;28;20556;-83
2022/01/31 09:51:26;;;;;;;33.65;19.13;;;5.50;75.60;;;;;;5013933;28;20038;-83
2022/01/31 09:53:56;;;;;;;37.92;22.08;;;5.70;75.60;;;;;;4996771;28;20034;-84
2022/01/31 09:56:33;;;;;;;31.33;19.90;;;5.70;74.80;;;;;;4996299;28;20042;-84
2022/01/31 09:59:01;;;;;;;27.58;16.23;;;5.80;75.20;;;;;;5013182;28;20026;-82
2022/01/31 10:04:18;;;;;;;37.70;20.48;;;6.10;74.60;;;;;;5004810;28;20109;-84
2022/01/31 10:06:49;;;;;;;43.25;25.77;;;6.00;74.70;;;;;;5012117;28;20097;-83
2022/01/31 10:09:18;;;;;;;35.92;21.27;;;6.00;75.20;;;;;;5012885;28;20601;-83
2022/01/31 10:12:22;;;;;;;28.85;16.23;;;5.80;76.10;;;;;;5012539;28;20096;-81
2022/01/31 10:17:36;;;;;;;32.33;19.13;;;6.20;75.60;;;;;;5010481;28;20049;-82
2022/01/31 10:20:13;;;;;;;29.05;19.15;;;6.30;74.70;;;;;;5013398;28;20076;-82
2022/01/31 10:22:39;;;;;;;32.70;21.17;;;6.30;75.40;;;;;;4995122;28;20042;-83
2022/01/31 10:25:10;;;;;;;32.75;21.15;;;6.10;75.50;;;;;;4991931;28;20367;-82
2022/01/31 10:27:37;;;;;;;27.45;17.83;;;6.00;76.10;;;;;;4995211;28;20088;-82
2022/01/31 10:30:11;;;;;;;30.33;18.38;;;6.10;76.50;;;;;;5013721;28;20030;-82
2022/01/31 10:32:40;;;;;;;29.85;18.73;;;6.20;76.00;;;;;;5013494;28;20061;-82
2022/01/31 10:35:18;;;;;;;31.95;22.42;;;6.20;76.20;;;;;;5016631;28;20034;-82
2022/01/31 10:37:46;;;;;;;29.35;17.52;;;6.30;76.00;;;;;;5016175;28;20454;-82
2022/01/31 10:45:56;;;;;;;29.98;17.48;;;6.30;76.90;;;;;;5016707;28;20056;-81
2022/01/31 10:54:05;;;;;;;45.17;25.65;;;6.60;76.20;;;;;;5017330;28;20104;-83
2022/01/31 10:56:42;;;;;;;33.92;23.17;;;6.50;76.40;;;;;;5014268;28;20029;-83
2022/01/31 10:59:17;;;;;;;33.22;22.55;;;6.40;77.10;;;;;;5017157;28;20034;-82
2022/01/31 11:01:47;;;;;;;33.65;21.40;;;6.30;77.50;;;;;;5015992;28;20042;-83
2022/01/31 11:04:15;;;;;;;32.25;19.70;;;6.30;77.70;;;;;;5018109;28;20046;-82
2022/01/31 11:06:43;;;;;;;34.42;23.67;;;6.40;78.00;;;;;;4999769;28;20444;-83
2022/01/31 11:09:18;;;;;;;34.15;20.48;;;6.40;77.90;;;;;;4996414;28;20077;-83
2022/01/31 11:11:46;;;;;;;30.23;19.25;;;6.40;78.00;;;;;;5013653;28;20038;-83
2022/01/31 11:14:13;;;;;;;36.83;24.40;;;6.40;78.20;;;;;;5016128;28;20041;-83
2022/01/31 11:16:42;;;;;;;36.45;23.95;;;6.40;77.70;;;;;;5014695;28;20042;-82
2022/01/31 11:19:10;;;;;;;35.15;22.33;;;6.40;78.10;;;;;;4996100;28;20050;-81
2022/01/31 11:21:43;;;;;;;39.58;26.42;;;6.30;78.00;;;;;;4994609;28;20121;-82
2022/01/31 11:24:19;;;;;;;31.67;21.17;;;6.30;78.00;;;;;;5013273;28;20042;-82
2022/01/31 11:26:50;;;;;;;37.90;23.83;;;6.30;78.40;;;;;;5011904;28;20129;-82
2022/01/31 11:29:17;;;;;;;37.08;23.80;;;6.40;77.70;;;;;;4993484;28;20049;-81
2022/01/31 11:31:45;;;;;;;34.58;23.35;;;6.30;77.90;;;;;;5006918;28;20057;-81
2022/01/31 11:34:11;;;;;;;31.25;22.48;;;6.30;78.20;;;;;;5003866;28;20552;-81
2022/01/31 11:36:39;;;;;;;36.60;22.88;;;6.50;78.00;;;;;;5009438;28;20046;-80
2022/01/31 11:39:11;;;;;;;38.10;24.83;;;6.50;77.60;;;;;;4996849;28;20100;-80
2022/01/31 11:41:45;;;;;;;37.90;22.63;;;6.50;77.50;;;;;;4996612;28;20041;-80
2022/01/31 11:44:20;;;;;;;36.35;23.95;;;6.50;77.60;;;;;;4996603;28;20038;-80
2022/01/31 11:46:46;;;;;;;29.48;20.55;;;6.60;77.60;;;;;;5014532;28;20508;-80
2022/01/31 11:49:14;;;;;;;30.88;19.30;;;6.80;77.70;;;;;;4997798;28;20370;-79
2022/01/31 11:52:19;;;;;;;31.77;22.08;;;7.00;77.60;;;;;;5012684;28;20038;-80
2022/01/31 11:55:08;;;;;;;35.80;22.88;;;7.40;75.30;;;;;;4899150;29;20044;-80
2022/01/31 11:57:37;;;;;;;38.55;26.45;;;7.60;74.70;;;;;;4903317;29;20114;-79
2022/01/31 12:00:10;;;;;;;34.70;25.30;;;7.60;74.20;;;;;;4975823;28;20034;-84
2022/01/31 12:02:48;;;;;;;43.40;29.63;;;7.80;74.00;;;;;;5012487;28;20038;-82
2022/01/31 12:05:22;;;;;;;39.70;28.20;;;8.00;73.40;;;;;;5009653;28;20116;-84
2022/01/31 12:08:16;;;;;;;37.33;25.70;;;8.10;73.10;;;;;;4993555;28;20080;-85
2022/01/31 12:10:46;;;;;;;38.60;28.05;;;8.40;72.70;;;;;;4990690;28;20088;-85
2022/01/31 12:13:36;;;;;;;;;;;8.80;71.30;;;;;;4994237;28;20532;-84
2022/01/31 12:16:14;;;;;;;41.75;28.42;;;8.80;70.80;;;;;;5010984;28;19917;-84
2022/01/31 12:19:03;;;;;;;45.70;29.48;;;8.60;71.10;;;;;;4995478;28;20034;-85
2022/01/31 12:24:46;;;;;;;35.92;26.30;;;8.30;72.20;;;;;;5005863;28;20092;-85
2022/01/31 12:27:17;;;;;;;41.58;28.95;;;8.40;72.60;;;;;;5006231;28;20042;-85
2022/01/31 12:29:44;;;;;;;31.63;22.92;;;8.20;73.20;;;;;;5008745;28;20382;-84
2022/01/31 12:32:32;;;;;;;44.13;30.33;;;8.10;74.00;;;;;;5008442;28;20042;-84
2022/01/31 12:35:01;;;;;;;50.28;28.33;;;8.20;74.30;;;;;;5008615;28;20155;-85
2022/01/31 12:37:37;;;;;;;35.42;26.15;;;8.10;74.70;;;;;;5011815;28;20437;-85
2022/01/31 12:40:14;;;;;;;35.25;25.42;;;8.20;75.20;;;;;;5008793;28;20045;-84
2022/01/31 12:45:22;;;;;;;28.67;19.90;;;8.40;75.40;;;;;;5012416;28;20062;-83
2022/01/31 12:48:12;;;;;;;29.83;20.52;;;8.60;75.10;;;;;;5007221;28;20041;-83
2022/01/31 12:50:58;;;;;;;25.05;18.45;;;8.90;74.70;;;;;;5011073;28;20716;-84
2022/01/31 12:53:38;;;;;;;25.33;18.80;;;9.10;74.30;;;;;;5013000;28;20034;-82
2022/01/31 12:56:19;;;;;;;;;;;9.20;73.80;;;;;;4991228;28;20133;-84
2022/01/31 12:58:51;;;;;;;25.70;16.75;;;9.30;73.40;;;;;;4997621;28;19910;-84
2022/01/31 13:01:28;;;;;;;41.05;27.60;;;9.40;72.90;;;;;;5008414;28;20528;-84
2022/01/31 13:03:57;;;;;;;44.50;31.52;;;9.40;72.40;;;;;;5011057;28;20041;-84
2022/01/31 13:06:24;;;;;;;46.75;33.20;;;9.20;72.60;;;;;;5010257;28;20045;-84
2022/01/31 13:08:50;;;;;;;41.95;30.83;;;9.00;72.80;;;;;;5012690;28;20050;-84
2022/01/31 13:11:17;;;;;;;48.72;36.42;;;8.90;74.10;;;;;;5005775;28;20058;-84
2022/01/31 13:13:43;;;;;;;40.58;30.20;;;8.90;74.40;;;;;;5008021;28;20046;-82
2022/01/31 13:16:11;;;;;;;42.20;29.05;;;8.70;75.40;;;;;;4992296;28;20026;-82